Aérodrome :
LOGIN :

S'inscrire | Disclaimer

   EN    FR    IT 

 










Légende :    VFR   VFR Marginal   IFR   IFR Intensif   IFR Très Intensif
Visi : 
Plafond : 
>= 8 km
>= 3000ft
5 à 8 km
1000 à 3000 ft
1500m à 5 km
500 à 1000 ft
800 à 1500m
200 à 500 ft
< 800m
< 200 ft
Symboles :   Orages  Brouillard  Fortes neiges  Fortes précipitations  Vent > 20 kt
SIGMETs :   Divers  Orages  Givrage  Turbulence  Onde Orograph.  Cendres Volcan.







- Altitude de l'aérodrome : 53 ft
- Code IATA : LBC


EDHL - Lübeck

DERNIER METAR :
  • 231450Z 16004KT 9999 BKN014 11/11 Q1015

METARs EXPIRÉS :
  • 231420Z 17004KT 9999 SCT006 BKN014 11/11 Q1014
  • 231350Z 17004KT 9999 SCT007 BKN010 11/11 Q1014
  • 231320Z 18005KT 130V220 8000 -RA SCT006 BKN010 11/11 Q1014
  • 231250Z 18005KT 140V200 7000 -RA SCT005 BKN013 12/12 Q1014
  • 231220Z 18004KT 3500 -RA SCT005 BKN009 11/11 Q1013 RERA

TAF TAF EDHL
Valide du 23 à 15h jusqu'au 23 à 21h UTC


231400Z 2315/2321 18005KT 9999 BKN012
BECMG 2315/2317 VRB03KT 4000 BR BKN004
TEMPO 2317/2321 2000 MIFG
Pas de NOTAMs connus pour ce terrain.



MET'MAP, la Météo Aéronautique d'un coup d'oeil ! - Copyright ORBIFLY Décembre 2007 - Disclaimer

ORBIFLY MET'MAP TEAM :

Programmation & Développement : Alexandra Zaïnal
Conception & Développement : Baudouin d'Aumeries
Co-Programmation & Développement : Marc-Olivier Méhu
Soutien technique & logistique : Manuel Goepfert

Contact : metmap@orbifly.com




SOURCES & CREDITS :

   NOAA